Time;durP1;ratioP1;P1;durP2;ratioP2;P2;SDS_P1;SDS_P2;PMS_P1;PMS_P2;Temp;Humidity;BMP_temperature;BMP_pressure;BME280_temperature;BME280_humidity;BME280_pressure;Samples;Min_cycle;Max_cycle;Signal;HPM_P1;HPM_P2
2024/02/12 00:01:08;;;;;;;92.87;36.13;;;;;;;;;;4977087;28;20227;-82
2024/02/12 00:03:34;;;;;;;91.97;35.13;;;;;;;;;;4962624;28;20212;-81
2024/02/12 00:06:02;;;;;;;86.13;33.83;;;;;;;;;;4979660;28;20739;-82
2024/02/12 00:08:28;;;;;;;93.57;35.70;;;;;;;;;;4991335;28;20289;-82
2024/02/12 00:10:54;;;;;;;92.90;36.57;;;;;;;;;;4995834;28;20220;-82
2024/02/12 00:13:21;;;;;;;98.00;36.37;;;;;;;;;;4977614;28;20897;-82
2024/02/12 00:15:47;;;;;;;92.63;33.90;;;;;;;;;;4980621;28;20229;-82
2024/02/12 00:18:12;;;;;;;90.00;35.03;;;;;;;;;;4960349;28;20233;-82
2024/02/12 00:20:41;;;;;;;101.50;37.20;;;;;;;;;;5028498;28;20278;-81
2024/02/12 00:23:08;;;;;;;103.57;37.73;;;;;;;;;;4985085;28;20235;-82
2024/02/12 00:25:36;;;;;;;102.07;38.97;;;;;;;;;;4975178;28;20212;-81
2024/02/12 00:28:02;;;;;;;109.03;39.60;;;;;;;;;;4986274;28;20273;-82
2024/02/12 00:30:33;;;;;;;101.73;38.00;;;;;;;;;;5004266;28;20231;-81
2024/02/12 00:33:00;;;;;;;109.57;40.70;;;;;;;;;;4978884;28;20681;-82
2024/02/12 00:35:26;;;;;;;100.83;36.23;;;;;;;;;;4989967;28;20228;-82
2024/02/12 00:37:55;;;;;;;98.07;34.73;;;;;;;;;;4957224;28;20327;-81
2024/02/12 00:40:20;;;;;;;95.17;34.10;;;;;;;;;;4980002;28;20224;-82
2024/02/12 00:42:48;;;;;;;105.07;35.77;;;;;;;;;;5010019;28;20208;-82
2024/02/12 00:45:18;;;;;;;96.97;35.07;;;;;;;;;;4990273;28;20278;-82
2024/02/12 00:47:44;;;;;;;89.90;33.07;;;;;;;;;;4975813;28;20223;-81
2024/02/12 00:50:10;;;;;;;103.70;33.93;;;;;;;;;;4977771;28;20906;-82
2024/02/12 00:52:37;;;;;;;82.60;32.30;;;;;;;;;;5012108;28;20224;-82
2024/02/12 00:55:11;;;;;;;80.17;32.27;;;;;;;;;;4979820;28;20223;-83
2024/02/12 00:57:37;;;;;;;89.73;32.63;;;;;;;;;;4992190;28;20292;-83
2024/02/12 01:00:12;;;;;;;89.47;32.10;;;;;;;;;;4977699;28;20223;-82
2024/02/12 01:02:40;;;;;;;82.90;31.70;;;;;;;;;;4966264;28;20216;-81
2024/02/12 01:05:08;;;;;;;89.37;32.27;;;;;;;;;;5010321;28;21074;-82
2024/02/12 01:07:39;;;;;;;94.47;32.37;;;;;;;;;;5004232;28;20228;-82
2024/02/12 01:10:05;;;;;;;100.33;34.00;;;;;;;;;;4978057;28;20773;-83
2024/02/12 01:12:31;;;;;;;93.07;34.10;;;;;;;;;;4993300;28;20278;-81
2024/02/12 01:14:58;;;;;;;87.43;32.03;;;;;;;;;;4983869;28;20220;-82
2024/02/12 01:17:24;;;;;;;87.97;32.53;;;;;;;;;;4972894;28;20229;-82
2024/02/12 01:19:53;;;;;;;98.17;31.50;;;;;;;;;;4962569;28;20220;-82
2024/02/12 01:22:21;;;;;;;99.70;33.37;;;;;;;;;;4988753;28;20219;-81
2024/02/12 01:24:48;;;;;;;94.90;32.30;;;;;;;;;;4994963;28;20216;-82
2024/02/12 01:27:14;;;;;;;93.53;32.27;;;;;;;;;;4994172;28;20287;-82
2024/02/12 01:29:47;;;;;;;92.63;33.60;;;;;;;;;;5000004;28;20215;-83
2024/02/12 01:32:12;;;;;;;86.73;33.43;;;;;;;;;;4999567;28;20346;-82
2024/02/12 01:34:40;;;;;;;97.20;34.30;;;;;;;;;;4995389;28;20379;-83
2024/02/12 01:37:06;;;;;;;95.30;32.47;;;;;;;;;;4962791;28;20228;-82
2024/02/12 01:39:32;;;;;;;107.60;33.70;;;;;;;;;;4998380;28;20279;-82
2024/02/12 01:41:57;;;;;;;80.10;31.07;;;;;;;;;;5006612;28;20228;-83
2024/02/12 01:44:23;;;;;;;101.13;33.20;;;;;;;;;;5002246;28;20227;-82
2024/02/12 01:46:49;;;;;;;100.60;32.03;;;;;;;;;;4978737;28;20231;-83
2024/02/12 01:49:19;;;;;;;87.73;30.80;;;;;;;;;;4996233;28;20273;-82
2024/02/12 01:51:48;;;;;;;90.73;29.73;;;;;;;;;;4987037;28;20615;-82
2024/02/12 01:54:15;;;;;;;88.17;30.43;;;;;;;;;;4992505;28;20756;-83
2024/02/12 01:56:41;;;;;;;96.10;30.17;;;;;;;;;;4992267;28;20230;-83
2024/02/12 01:59:17;;;;;;;83.50;29.57;;;;;;;;;;4976574;28;20233;-82
2024/02/12 02:01:47;;;;;;;88.87;30.93;;;;;;;;;;4984714;28;20220;-83
2024/02/12 02:04:13;;;;;;;102.40;31.33;;;;;;;;;;5014439;28;20261;-82
2024/02/12 02:06:51;;;;;;;85.13;31.27;;;;;;;;;;4982381;28;20288;-82
2024/02/12 02:09:17;;;;;;;102.17;32.40;;;;;;;;;;4992542;28;20266;-81
2024/02/12 02:11:47;;;;;;;87.27;31.13;;;;;;;;;;4981414;28;20863;-82
2024/02/12 02:14:13;;;;;;;87.37;29.43;;;;;;;;;;4959300;28;20229;-82
2024/02/12 02:16:42;;;;;;;90.03;30.77;;;;;;;;;;4978639;28;20216;-82
2024/02/12 02:19:11;;;;;;;93.20;29.80;;;;;;;;;;4990382;28;20221;-80
2024/02/12 02:21:36;;;;;;;97.63;30.57;;;;;;;;;;4982384;28;20247;-81
2024/02/12 02:24:04;;;;;;;95.47;30.77;;;;;;;;;;4990774;28;20709;-82
2024/02/12 02:26:29;;;;;;;91.07;32.00;;;;;;;;;;4978077;28;20626;-82
2024/02/12 02:28:58;;;;;;;90.03;30.43;;;;;;;;;;4994629;28;20228;-82
2024/02/12 02:31:24;;;;;;;83.97;29.37;;;;;;;;;;4967923;28;20269;-82
2024/02/12 02:33:49;;;;;;;94.80;30.80;;;;;;;;;;4993657;28;20291;-81
2024/02/12 02:36:18;;;;;;;88.27;29.57;;;;;;;;;;5005005;28;20220;-81
2024/02/12 02:38:44;;;;;;;83.37;29.73;;;;;;;;;;4983653;28;20252;-82
2024/02/12 02:41:11;;;;;;;84.10;29.67;;;;;;;;;;5004234;28;20220;-80
2024/02/12 02:43:38;;;;;;;97.87;29.60;;;;;;;;;;4977206;28;20235;-82
2024/02/12 02:46:06;;;;;;;92.43;30.07;;;;;;;;;;4997157;28;20319;-82
2024/02/12 02:48:32;;;;;;;92.20;29.90;;;;;;;;;;4964065;28;20278;-81
2024/02/12 02:50:57;;;;;;;87.27;29.17;;;;;;;;;;4976689;28;20220;-82
2024/02/12 02:53:23;;;;;;;82.10;28.27;;;;;;;;;;4980014;28;20228;-82
2024/02/12 02:55:50;;;;;;;83.57;29.03;;;;;;;;;;4973281;28;20220;-81
2024/02/12 02:58:15;;;;;;;88.33;28.43;;;;;;;;;;4987716;28;20224;-82
2024/02/12 03:00:41;;;;;;;85.00;27.40;;;;;;;;;;4962778;28;20299;-81
2024/02/12 03:03:08;;;;;;;84.40;27.60;;;;;;;;;;5007636;28;20225;-83
2024/02/12 03:05:38;;;;;;;85.43;27.70;;;;;;;;;;4981181;28;20226;-82
2024/02/12 03:08:07;;;;;;;72.83;25.30;;;;;;;;;;4975179;28;20224;-82
2024/02/12 03:10:33;;;;;;;82.77;26.77;;;;;;;;;;4977220;28;20220;-82
2024/02/12 03:12:59;;;;;;;85.20;25.83;;;;;;;;;;4957747;28;20220;-82
2024/02/12 03:15:24;;;;;;;80.80;25.90;;;;;;;;;;4989244;28;20615;-82
2024/02/12 03:17:53;;;;;;;91.43;26.27;;;;;;;;;;4983520;28;20265;-81
2024/02/12 03:20:24;;;;;;;72.13;25.90;;;;;;;;;;5005713;28;20220;-82
2024/02/12 03:22:50;;;;;;;83.27;23.87;;;;;;;;;;4990784;28;20248;-81
2024/02/12 03:25:17;;;;;;;80.60;23.43;;;;;;;;;;4986504;28;20220;-81
2024/02/12 03:27:43;;;;;;;69.70;24.47;;;;;;;;;;4998821;28;20247;-83
2024/02/12 03:30:09;;;;;;;74.37;22.30;;;;;;;;;;4976144;28;20244;-82
2024/02/12 03:32:36;;;;;;;67.87;22.87;;;;;;;;;;4963772;28;20227;-82
2024/02/12 03:35:02;;;;;;;79.03;23.90;;;;;;;;;;4971432;28;20228;-82
2024/02/12 03:37:28;;;;;;;85.23;24.53;;;;;;;;;;4961395;28;20229;-81
2024/02/12 03:39:55;;;;;;;75.73;22.20;;;;;;;;;;4972682;28;20212;-83
2024/02/12 03:42:28;;;;;;;72.33;22.10;;;;;;;;;;4974887;28;20220;-82
2024/02/12 03:44:58;;;;;;;73.07;23.30;;;;;;;;;;4973460;28;20351;-82
2024/02/12 03:47:27;;;;;;;76.10;22.07;;;;;;;;;;4990441;28;20228;-82
2024/02/12 04:01:56;;;;;;;71.33;22.83;;;;;;;;;;5020009;28;20648;-82
2024/02/12 04:04:21;;;;;;;67.60;21.40;;;;;;;;;;4973770;28;20232;-81
2024/02/12 04:06:47;;;;;;;71.47;22.20;;;;;;;;;;4976739;28;20225;-82
2024/02/12 04:09:16;;;;;;;70.97;23.20;;;;;;;;;;4978121;28;20242;-81
2024/02/12 04:11:42;;;;;;;72.03;23.33;;;;;;;;;;4987648;28;20220;-82
2024/02/12 04:14:09;;;;;;;68.07;24.70;;;;;;;;;;4999770;28;20225;-82
2024/02/12 04:16:39;;;;;;;73.53;25.50;;;;;;;;;;4973985;28;20224;-81
2024/02/12 04:19:05;;;;;;;76.33;27.47;;;;;;;;;;4979011;28;20232;-82
2024/02/12 04:21:33;;;;;;;81.43;26.53;;;;;;;;;;4987750;28;20220;-82
2024/02/12 04:24:03;;;;;;;80.13;27.77;;;;;;;;;;4994531;28;20732;-83
2024/02/12 04:26:32;;;;;;;78.53;28.43;;;;;;;;;;4997748;28;20227;-81
2024/02/12 04:28:58;;;;;;;94.27;28.87;;;;;;;;;;4959847;28;20315;-81
2024/02/12 04:31:28;;;;;;;88.87;29.80;;;;;;;;;;4991656;28;20208;-82
2024/02/12 04:33:54;;;;;;;83.50;29.00;;;;;;;;;;4977895;28;20244;-81
2024/02/12 04:36:20;;;;;;;96.77;30.67;;;;;;;;;;5012058;28;20632;-82
2024/02/12 04:38:45;;;;;;;90.73;30.53;;;;;;;;;;4973271;28;20220;-80
2024/02/12 04:41:13;;;;;;;91.77;29.93;;;;;;;;;;4961783;28;20260;-82
2024/02/12 04:43:40;;;;;;;88.20;30.60;;;;;;;;;;4975870;28;20216;-82
2024/02/12 04:46:05;;;;;;;75.97;30.20;;;;;;;;;;4977510;28;20224;-79
2024/02/12 04:48:31;;;;;;;92.20;33.90;;;;;;;;;;4974781;28;20584;-81
2024/02/12 04:50:59;;;;;;;99.20;33.87;;;;;;;;;;4992190;28;20263;-81
2024/02/12 04:53:29;;;;;;;94.23;34.57;;;;;;;;;;4985477;28;20816;-80
2024/02/12 04:55:59;;;;;;;100.00;35.97;;;;;;;;;;4985208;28;20583;-79
2024/02/12 04:58:27;;;;;;;104.47;35.93;;;;;;;;;;4976400;28;20225;-81
2024/02/12 05:00:58;;;;;;;105.47;36.30;;;;;;;;;;5007416;28;20439;-79
2024/02/12 05:03:23;;;;;;;105.00;37.17;;;;;;;;;;4991069;28;20223;-79
2024/02/12 05:05:51;;;;;;;110.20;39.00;;;;;;;;;;4992995;28;20218;-80
2024/02/12 05:08:20;;;;;;;108.43;38.53;;;;;;;;;;4981331;28;20290;-79
2024/02/12 05:10:45;;;;;;;114.67;39.97;;;;;;;;;;4976957;28;20236;-79
2024/02/12 05:13:11;;;;;;;107.60;38.87;;;;;;;;;;4967743;28;20670;-79
2024/02/12 05:15:37;;;;;;;104.57;39.03;;;;;;;;;;4973609;28;20224;-80
2024/02/12 05:22:32;;;;;;;105.93;39.47;;;;;;;;;;4978164;28;20280;-80
2024/02/12 05:23:37;;;;;;;107.20;38.77;;;;;;;;;;4989110;28;20661;-80
2024/02/12 05:26:05;;;;;;;107.83;39.40;;;;;;;;;;4991764;28;20229;-80
2024/02/12 05:28:33;;;;;;;110.60;39.67;;;;;;;;;;4981691;28;20247;-81
2024/02/12 05:30:59;;;;;;;117.87;41.53;;;;;;;;;;4990786;28;20240;-79
2024/02/12 05:33:25;;;;;;;113.60;40.73;;;;;;;;;;4983141;28;20555;-80
2024/02/12 05:35:52;;;;;;;117.90;40.23;;;;;;;;;;4992246;28;20478;-81
2024/02/12 05:38:18;;;;;;;114.33;39.70;;;;;;;;;;4984756;28;20225;-80
2024/02/12 05:40:43;;;;;;;127.40;40.33;;;;;;;;;;4984075;28;21035;-80
2024/02/12 05:43:09;;;;;;;138.97;42.23;;;;;;;;;;4994750;28;20220;-79
2024/02/12 05:45:35;;;;;;;125.07;43.27;;;;;;;;;;4994741;28;20220;-80
2024/02/12 05:48:03;;;;;;;119.43;40.47;;;;;;;;;;4964880;28;20252;-81
2024/02/12 05:50:29;;;;;;;131.03;44.63;;;;;;;;;;4977433;28;20298;-80
2024/02/12 05:52:55;;;;;;;129.63;42.67;;;;;;;;;;4953402;28;20220;-79
2024/02/12 05:55:20;;;;;;;133.30;43.27;;;;;;;;;;4994144;28;20224;-81
2024/02/12 05:57:46;;;;;;;130.70;42.40;;;;;;;;;;4973918;28;20693;-79
2024/02/12 06:00:12;;;;;;;134.63;43.50;;;;;;;;;;4989392;28;21021;-81
2024/02/12 06:02:41;;;;;;;129.57;43.87;;;;;;;;;;4978633;28;20572;-80
2024/02/12 06:05:09;;;;;;;126.50;43.70;;;;;;;;;;5002101;28;20281;-80
2024/02/12 06:07:39;;;;;;;132.70;43.43;;;;;;;;;;4994180;28;20231;-81
2024/02/12 06:10:07;;;;;;;135.07;45.00;;;;;;;;;;4968188;28;20231;-79
2024/02/12 06:12:33;;;;;;;135.70;44.77;;;;;;;;;;4963946;28;20256;-79
2024/02/12 06:15:01;;;;;;;137.37;45.23;;;;;;;;;;4982824;28;20231;-79
2024/02/12 06:17:26;;;;;;;139.97;44.17;;;;;;;;;;4977153;28;20230;-80
2024/02/12 06:19:56;;;;;;;143.00;44.93;;;;;;;;;;4981480;28;20213;-80
2024/02/12 06:22:21;;;;;;;137.80;45.53;;;;;;;;;;5009785;28;20216;-79
2024/02/12 06:24:47;;;;;;;142.63;45.93;;;;;;;;;;4994724;28;20569;-80
2024/02/12 06:27:14;;;;;;;140.63;46.30;;;;;;;;;;4966602;28;20266;-80
2024/02/12 06:29:40;;;;;;;138.77;46.70;;;;;;;;;;4997194;28;20220;-80
2024/02/12 06:32:13;;;;;;;148.97;47.33;;;;;;;;;;4973975;28;20236;-80
2024/02/12 06:34:42;;;;;;;143.63;46.37;;;;;;;;;;4985884;28;20855;-81
2024/02/12 06:37:07;;;;;;;151.80;47.47;;;;;;;;;;4980225;28;20239;-79
2024/02/12 06:39:32;;;;;;;134.87;47.37;;;;;;;;;;4989941;28;20236;-82
2024/02/12 06:42:03;;;;;;;131.60;45.10;;;;;;;;;;4978468;28;20242;-83
2024/02/12 06:44:29;;;;;;;127.00;43.10;;;;;;;;;;4980650;28;20227;-81
2024/02/12 06:46:55;;;;;;;131.47;43.30;;;;;;;;;;4982667;28;20657;-79
2024/02/12 06:49:21;;;;;;;127.83;43.30;;;;;;;;;;4961558;28;20220;-79
2024/02/12 06:51:49;;;;;;;132.83;43.00;;;;;;;;;;4998506;28;20631;-78
2024/02/12 06:54:14;;;;;;;135.30;43.47;;;;;;;;;;4993347;28;20712;-80
2024/02/12 06:56:44;;;;;;;130.40;42.27;;;;;;;;;;4966001;28;20682;-80
2024/02/12 06:59:10;;;;;;;124.80;41.33;;;;;;;;;;4975673;28;20240;-78
2024/02/12 07:01:40;;;;;;;121.80;40.83;;;;;;;;;;4970898;28;20311;-79
2024/02/12 07:04:06;;;;;;;124.23;42.27;;;;;;;;;;4970750;28;20228;-79
2024/02/12 07:06:34;;;;;;;123.20;40.73;;;;;;;;;;4980581;28;20232;-79
2024/02/12 07:09:05;;;;;;;125.80;42.20;;;;;;;;;;4997125;28;20228;-80
2024/02/12 07:11:30;;;;;;;127.33;42.17;;;;;;;;;;4970338;28;20853;-79
2024/02/12 07:13:58;;;;;;;126.23;41.53;;;;;;;;;;4979293;28;20226;-79
2024/02/12 07:16:29;;;;;;;112.43;39.93;;;;;;;;;;4973630;28;20239;-80
2024/02/12 07:18:57;;;;;;;121.17;41.27;;;;;;;;;;4975347;28;20224;-81
2024/02/12 07:21:23;;;;;;;114.07;39.90;;;;;;;;;;4991071;28;20270;-79
2024/02/12 07:23:49;;;;;;;115.47;39.80;;;;;;;;;;4975116;28;20239;-79
2024/02/12 07:26:15;;;;;;;115.13;39.63;;;;;;;;;;4985653;28;20224;-80
2024/02/12 07:28:41;;;;;;;113.73;40.40;;;;;;;;;;4980206;28;20256;-79
2024/02/12 07:31:07;;;;;;;113.77;39.80;;;;;;;;;;4980263;28;20235;-78
2024/02/12 07:33:35;;;;;;;113.27;40.60;;;;;;;;;;4993350;28;20230;-80
2024/02/12 07:36:05;;;;;;;112.87;39.50;;;;;;;;;;4996458;28;20229;-80
2024/02/12 07:38:36;;;;;;;113.13;41.17;;;;;;;;;;4983707;28;20237;-80
2024/02/12 07:41:02;;;;;;;113.83;39.77;;;;;;;;;;5004533;28;20223;-79
2024/02/12 07:43:30;;;;;;;103.17;38.67;;;;;;;;;;4978571;28;20213;-79
2024/02/12 07:45:58;;;;;;;105.60;37.67;;;;;;;;;;4960248;28;20227;-79
2024/02/12 07:48:29;;;;;;;102.80;38.77;;;;;;;;;;4996613;28;20274;-79
2024/02/12 07:50:54;;;;;;;100.10;38.47;;;;;;;;;;4996937;28;20230;-79
2024/02/12 07:53:25;;;;;;;99.67;38.10;;;;;;;;;;4973977;28;20216;-78
2024/02/12 07:55:51;;;;;;;92.13;37.27;;;;;;;;;;4981714;28;20269;-81
2024/02/12 07:58:18;;;;;;;101.57;38.77;;;;;;;;;;4981439;28;20221;-78
2024/02/12 08:00:43;;;;;;;93.13;36.47;;;;;;;;;;4991612;28;20296;-81
2024/02/12 08:03:09;;;;;;;93.80;36.70;;;;;;;;;;4990532;28;20658;-78
2024/02/12 08:05:37;;;;;;;82.73;34.43;;;;;;;;;;5005808;28;20233;-80
2024/02/12 08:08:08;;;;;;;82.43;33.90;;;;;;;;;;5011658;28;20220;-79
2024/02/12 08:10:37;;;;;;;84.03;33.77;;;;;;;;;;4995474;28;20233;-79
2024/02/12 08:13:04;;;;;;;84.77;33.67;;;;;;;;;;4986802;28;20757;-79
2024/02/12 08:15:30;;;;;;;78.50;32.03;;;;;;;;;;5012738;28;20220;-79
2024/02/12 08:17:58;;;;;;;75.17;31.47;;;;;;;;;;4981985;28;20217;-79
2024/02/12 08:20:32;;;;;;;71.43;30.07;;;;;;;;;;4978936;28;20227;-78
2024/02/12 08:22:58;;;;;;;61.37;28.30;;;;;;;;;;4998711;28;20319;-80
2024/02/12 08:25:25;;;;;;;57.23;27.33;;;;;;;;;;4974945;28;20232;-79
2024/02/12 08:27:50;;;;;;;63.10;26.50;;;;;;;;;;5012749;28;20212;-77
2024/02/12 08:30:18;;;;;;;58.67;27.97;;;;;;;;;;5012207;28;20604;-80
2024/02/12 08:32:44;;;;;;;62.37;28.47;;;;;;;;;;4989961;28;20235;-79
2024/02/12 08:35:10;;;;;;;57.90;28.00;;;;;;;;;;4974596;28;20220;-81
2024/02/12 08:37:38;;;;;;;57.43;26.83;;;;;;;;;;4996292;28;20639;-80
2024/02/12 08:40:07;;;;;;;53.40;26.23;;;;;;;;;;4965718;28;20246;-81
2024/02/12 08:42:33;;;;;;;49.67;25.83;;;;;;;;;;4973465;28;20221;-80
2024/02/12 08:44:59;;;;;;;46.67;23.17;;;;;;;;;;4995177;28;20992;-78
2024/02/12 08:47:26;;;;;;;43.73;23.77;;;;;;;;;;4997463;28;20227;-78
2024/02/12 08:49:53;;;;;;;42.20;22.23;;;;;;;;;;4993759;28;20219;-79
2024/02/12 08:52:19;;;;;;;35.43;21.23;;;;;;;;;;4986949;28;20232;-79
2024/02/12 08:54:45;;;;;;;35.83;20.27;;;;;;;;;;5003759;28;20278;-78
2024/02/12 08:57:14;;;;;;;35.50;19.33;;;;;;;;;;4997053;28;20228;-78
2024/02/12 08:59:43;;;;;;;33.00;18.80;;;;;;;;;;4993198;28;20516;-79
2024/02/12 09:02:11;;;;;;;29.30;18.13;;;;;;;;;;4995735;28;20235;-79
2024/02/12 09:04:37;;;;;;;30.80;18.60;;;;;;;;;;4990070;28;20593;-79
2024/02/12 09:07:05;;;;;;;29.30;18.70;;;;;;;;;;5013577;28;20225;-78
2024/02/12 09:09:31;;;;;;;28.53;18.33;;;;;;;;;;5007892;28;20263;-79
2024/02/12 09:11:58;;;;;;;28.87;17.83;;;;;;;;;;4993722;28;20228;-80
2024/02/12 09:14:23;;;;;;;27.83;18.77;;;;;;;;;;5001570;28;21255;-79
2024/02/12 09:16:54;;;;;;;28.60;18.73;;;;;;;;;;4958456;28;20224;-78
2024/02/12 09:19:19;;;;;;;27.17;18.60;;;;;;;;;;4968928;28;20225;-79
2024/02/12 09:21:45;;;;;;;27.50;18.17;;;;;;;;;;4986491;28;20258;-79
2024/02/12 09:24:11;;;;;;;26.33;18.67;;;;;;;;;;4991962;28;20220;-79
2024/02/12 09:26:40;;;;;;;27.20;18.50;;;;;;;;;;4977421;28;20234;-78
2024/02/12 09:29:06;;;;;;;24.77;19.23;;;;;;;;;;4978053;28;20220;-78
2024/02/12 09:31:34;;;;;;;25.93;20.23;;;;;;;;;;4991765;28;20223;-79
2024/02/12 09:34:02;;;;;;;26.60;20.17;;;;;;;;;;5021355;28;20630;-79
2024/02/12 09:36:28;;;;;;;27.90;19.63;;;;;;;;;;4978985;28;20216;-78
2024/02/12 09:38:54;;;;;;;26.80;20.83;;;;;;;;;;4998467;28;20304;-79
2024/02/12 09:41:26;;;;;;;28.77;20.97;;;;;;;;;;5008987;28;20958;-79
2024/02/12 09:43:57;;;;;;;25.13;19.70;;;;;;;;;;4991853;28;20231;-79
2024/02/12 09:46:23;;;;;;;26.10;20.00;;;;;;;;;;5001881;28;21020;-80
2024/02/12 09:48:48;;;;;;;25.70;19.80;;;;;;;;;;5006195;28;20224;-79
2024/02/12 09:51:18;;;;;;;29.33;21.30;;;;;;;;;;4969271;28;20224;-78
2024/02/12 09:53:44;;;;;;;32.60;22.63;;;;;;;;;;4994926;28;20242;-78
2024/02/12 09:56:13;;;;;;;30.13;20.83;;;;;;;;;;4965720;28;20701;-79
2024/02/12 09:58:39;;;;;;;24.27;19.37;;;;;;;;;;4990754;28;20262;-78
2024/02/12 10:01:10;;;;;;;25.57;20.23;;;;;;;;;;4997397;28;20216;-80
2024/02/12 10:03:36;;;;;;;24.67;19.67;;;;;;;;;;4990144;28;20282;-79
2024/02/12 10:06:03;;;;;;;24.27;19.60;;;;;;;;;;4995090;28;20216;-78
2024/02/12 10:08:30;;;;;;;23.07;18.87;;;;;;;;;;4997120;28;20301;-79
2024/02/12 10:10:56;;;;;;;25.77;19.53;;;;;;;;;;5010608;28;20232;-79
2024/02/12 10:13:24;;;;;;;28.27;19.90;;;;;;;;;;4976545;28;20223;-80
2024/02/12 10:15:51;;;;;;;26.67;20.17;;;;;;;;;;4972711;28;20219;-79
2024/02/12 10:18:17;;;;;;;27.03;19.57;;;;;;;;;;4979200;28;20233;-78
2024/02/12 10:20:43;;;;;;;28.10;18.90;;;;;;;;;;4979419;28;20228;-78
2024/02/12 10:23:19;;;;;;;24.37;19.43;;;;;;;;;;4979609;28;20223;-79
2024/02/12 10:25:50;;;;;;;30.73;20.07;;;;;;;;;;4995121;28;20255;-78
2024/02/12 10:28:19;;;;;;;27.70;19.37;;;;;;;;;;4990737;28;20224;-79
2024/02/12 10:30:46;;;;;;;25.03;19.83;;;;;;;;;;4978170;28;20216;-79
2024/02/12 10:33:12;;;;;;;27.83;19.77;;;;;;;;;;4977711;28;20232;-79
2024/02/12 10:35:38;;;;;;;24.87;19.37;;;;;;;;;;4995529;28;20225;-80
2024/02/12 10:38:09;;;;;;;28.00;20.10;;;;;;;;;;4994945;28;20700;-78
2024/02/12 10:41:01;;;;;;;27.77;20.87;;;;;;;;;;4978995;28;20256;-78
2024/02/12 10:43:32;;;;;;;30.77;21.07;;;;;;;;;;4998662;28;20217;-79
2024/02/12 10:46:00;;;;;;;29.23;21.27;;;;;;;;;;4975556;28;20233;-78
2024/02/12 10:48:30;;;;;;;30.20;21.93;;;;;;;;;;4978323;28;20673;-78
2024/02/12 10:50:56;;;;;;;27.80;21.97;;;;;;;;;;4973731;28;20432;-77
2024/02/12 10:53:23;;;;;;;32.17;24.17;;;;;;;;;;4963100;28;20311;-77
2024/02/12 10:55:49;;;;;;;37.17;24.03;;;;;;;;;;5009999;28;20228;-78
2024/02/12 10:58:14;;;;;;;33.90;24.57;;;;;;;;;;4972976;28;20859;-77
2024/02/12 11:00:40;;;;;;;32.90;25.30;;;;;;;;;;4974709;28;20483;-79
2024/02/12 11:03:09;;;;;;;33.73;26.10;;;;;;;;;;4960351;28;21418;-78
2024/02/12 11:05:38;;;;;;;35.90;26.30;;;;;;;;;;5004445;28;20234;-78
2024/02/12 11:08:10;;;;;;;35.73;25.47;;;;;;;;;;4990125;28;20212;-79
2024/02/12 11:10:36;;;;;;;33.80;25.83;;;;;;;;;;5004013;28;20246;-79
2024/02/12 11:13:05;;;;;;;35.47;25.70;;;;;;;;;;4971455;28;21206;-78
2024/02/12 11:15:31;;;;;;;34.03;26.37;;;;;;;;;;4990438;28;20275;-79
2024/02/12 11:17:57;;;;;;;41.17;26.87;;;;;;;;;;4992493;28;20334;-78
2024/02/12 11:20:25;;;;;;;38.97;25.60;;;;;;;;;;4972725;28;20269;-79
2024/02/12 11:22:54;;;;;;;34.77;25.43;;;;;;;;;;4990508;28;20331;-78
2024/02/12 11:25:20;;;;;;;33.90;24.90;;;;;;;;;;4993227;28;20225;-77
2024/02/12 11:27:51;;;;;;;35.53;26.60;;;;;;;;;;4977966;28;20339;-79
2024/02/12 11:30:16;;;;;;;33.50;25.17;;;;;;;;;;4986626;28;20224;-80
2024/02/12 11:32:45;;;;;;;32.47;25.43;;;;;;;;;;4988217;28;20204;-79
2024/02/12 11:35:12;;;;;;;32.37;24.37;;;;;;;;;;5007190;28;20303;-79
2024/02/12 11:38:01;;;;;;;34.63;25.67;;;;;;;;;;5004109;28;20685;-79
2024/02/12 11:40:28;;;;;;;33.67;24.47;;;;;;;;;;4995612;28;20258;-79
2024/02/12 11:42:54;;;;;;;31.87;23.93;;;;;;;;;;5012332;28;20209;-79
2024/02/12 11:45:20;;;;;;;31.30;23.40;;;;;;;;;;4989221;28;20223;-79
2024/02/12 11:47:46;;;;;;;35.63;24.07;;;;;;;;;;4953465;28;20224;-79
2024/02/12 11:50:27;;;;;;;33.07;23.97;;;;;;;;;;4972632;28;20215;-78
2024/02/12 11:52:56;;;;;;;30.23;22.97;;;;;;;;;;4990629;28;20219;-78
2024/02/12 11:55:24;;;;;;;29.17;23.73;;;;;;;;;;4956394;28;20216;-79
2024/02/12 11:57:50;;;;;;;32.90;25.77;;;;;;;;;;4976766;28;20234;-79
2024/02/12 12:00:22;;;;;;;33.13;24.73;;;;;;;;;;5000240;28;20220;-78
2024/02/12 12:02:50;;;;;;;31.83;24.40;;;;;;;;;;4978944;28;20233;-78
2024/02/12 12:05:28;;;;;;;30.77;23.90;;;;;;;;;;4993721;28;20213;-78
2024/02/12 12:07:55;;;;;;;31.97;23.97;;;;;;;;;;4989707;28;20216;-79
2024/02/12 12:10:28;;;;;;;30.47;24.23;;;;;;;;;;4990741;28;20220;-79
2024/02/12 12:12:57;;;;;;;29.53;23.87;;;;;;;;;;5019265;28;20224;-78
2024/02/12 12:15:23;;;;;;;30.93;24.40;;;;;;;;;;4975509;28;20803;-78
2024/02/12 12:17:48;;;;;;;35.27;24.27;;;;;;;;;;5009206;28;20238;-78
2024/02/12 12:20:16;;;;;;;32.77;23.97;;;;;;;;;;4978762;28;20693;-78
2024/02/12 12:22:45;;;;;;;34.83;26.67;;;;;;;;;;4964234;28;20220;-78
2024/02/12 12:25:12;;;;;;;32.03;25.10;;;;;;;;;;4970904;28;20220;-78
2024/02/12 12:27:38;;;;;;;32.10;24.37;;;;;;;;;;4990862;28;20228;-77
2024/02/12 12:30:20;;;;;;;30.40;24.77;;;;;;;;;;4967503;28;20221;-76
2024/02/12 12:32:49;;;;;;;31.90;24.33;;;;;;;;;;4991013;28;20220;-78
2024/02/12 12:35:20;;;;;;;29.47;23.90;;;;;;;;;;4976695;28;20583;-78
2024/02/12 12:37:46;;;;;;;30.67;24.00;;;;;;;;;;4992662;28;20236;-76
2024/02/12 12:40:22;;;;;;;29.70;25.17;;;;;;;;;;4979002;28;20221;-77
2024/02/12 12:42:48;;;;;;;32.23;24.53;;;;;;;;;;5000314;28;20240;-77
2024/02/12 12:45:17;;;;;;;33.93;25.30;;;;;;;;;;4985071;28;20320;-77
2024/02/12 12:47:43;;;;;;;30.20;24.20;;;;;;;;;;5000945;28;20233;-78
2024/02/12 12:50:13;;;;;;;30.60;25.07;;;;;;;;;;5007329;28;20227;-77
2024/02/12 12:52:42;;;;;;;32.70;25.33;;;;;;;;;;4995053;28;20227;-77
2024/02/12 12:55:08;;;;;;;31.43;25.20;;;;;;;;;;4974560;28;20228;-78
2024/02/12 12:57:37;;;;;;;31.70;25.50;;;;;;;;;;4953901;28;20732;-78
2024/02/12 13:00:15;;;;;;;29.70;25.67;;;;;;;;;;4974300;28;20314;-79
2024/02/12 13:02:44;;;;;;;30.87;26.13;;;;;;;;;;4981248;28;20235;-77
2024/02/12 13:05:12;;;;;;;32.83;25.70;;;;;;;;;;4991785;28;20216;-77
2024/02/12 13:07:41;;;;;;;30.77;25.20;;;;;;;;;;4988541;28;20270;-78
2024/02/12 13:10:08;;;;;;;34.33;26.70;;;;;;;;;;4994829;28;20342;-78
2024/02/12 13:12:38;;;;;;;34.63;26.13;;;;;;;;;;4972899;28;20226;-78
2024/02/12 13:15:08;;;;;;;34.47;26.47;;;;;;;;;;4977452;28;20653;-79
2024/02/12 13:17:42;;;;;;;32.20;25.60;;;;;;;;;;4989904;28;20233;-80
2024/02/12 13:20:21;;;;;;;34.70;27.53;;;;;;;;;;4985497;28;20735;-79
2024/02/12 13:23:00;;;;;;;34.60;26.40;;;;;;;;;;4971850;28;20331;-78
2024/02/12 13:25:31;;;;;;;33.33;26.30;;;;;;;;;;4976432;28;20369;-79
2024/02/12 13:28:00;;;;;;;31.93;27.10;;;;;;;;;;4990009;28;20240;-77
2024/02/12 13:30:34;;;;;;;32.50;26.00;;;;;;;;;;4969493;28;20220;-77
2024/02/12 13:33:04;;;;;;;33.13;25.30;;;;;;;;;;5003687;28;20595;-78
2024/02/12 13:35:37;;;;;;;29.90;25.10;;;;;;;;;;4973011;28;20208;-78
2024/02/12 13:38:06;;;;;;;30.67;25.33;;;;;;;;;;4997000;28;20620;-78
2024/02/12 13:40:34;;;;;;;32.40;25.93;;;;;;;;;;4995967;28;20216;-77
2024/02/12 13:43:03;;;;;;;33.10;24.53;;;;;;;;;;5012194;28;20233;-79
2024/02/12 13:45:28;;;;;;;33.80;25.97;;;;;;;;;;5003501;28;20221;-78
2024/02/12 13:47:56;;;;;;;31.40;24.77;;;;;;;;;;4976954;28;20222;-78
2024/02/12 13:50:26;;;;;;;36.70;27.93;;;;;;;;;;4991393;28;20220;-78
2024/02/12 13:52:54;;;;;;;31.57;25.47;;;;;;;;;;4985117;28;20232;-79
2024/02/12 13:55:20;;;;;;;31.13;25.53;;;;;;;;;;4958353;28;20374;-77
2024/02/12 13:57:53;;;;;;;32.30;24.77;;;;;;;;;;5020418;28;20220;-78
2024/02/12 14:00:21;;;;;;;31.67;24.97;;;;;;;;;;5020252;28;20221;-79
2024/02/12 14:02:48;;;;;;;29.43;24.07;;;;;;;;;;4991578;28;20722;-78
2024/02/12 14:05:17;;;;;;;27.70;22.23;;;;;;;;;;4975588;28;20220;-78
2024/02/12 14:07:49;;;;;;;26.83;21.33;;;;;;;;;;4991841;28;20944;-80
2024/02/12 14:10:19;;;;;;;29.13;21.57;;;;;;;;;;4991787;28;20224;-79
2024/02/12 14:12:47;;;;;;;27.20;21.00;;;;;;;;;;5019309;28;20310;-77
2024/02/12 14:15:13;;;;;;;28.93;22.47;;;;;;;;;;4993358;28;20224;-78
2024/02/12 14:17:43;;;;;;;27.67;21.83;;;;;;;;;;5002273;28;20396;-77
2024/02/12 14:20:16;;;;;;;26.37;22.23;;;;;;;;;;4987310;28;20260;-80
2024/02/12 14:22:44;;;;;;;31.17;23.10;;;;;;;;;;4986314;28;21281;-78
2024/02/12 14:25:10;;;;;;;31.30;23.57;;;;;;;;;;4997194;28;20836;-78
2024/02/12 14:27:36;;;;;;;33.20;24.20;;;;;;;;;;4965695;28;20286;-78
2024/02/12 14:30:17;;;;;;;29.97;24.17;;;;;;;;;;4999038;28;20232;-78
2024/02/12 14:32:50;;;;;;;30.20;24.30;;;;;;;;;;5007275;28;21018;-77